Time;durP1;ratioP1;P1;durP2;ratioP2;P2;SDS_P1;SDS_P2;PMS_P1;PMS_P2;Temp;Humidity;BMP_temperature;BMP_pressure;BME280_temperature;BME280_humidity;BME280_pressure;Samples;Min_cycle;Max_cycle;Signal;HPM_P1;HPM_P2
2023/05/19 00:01:16;;;;;;;;;;;;;;;26.08;33.05;100429.94;5072610;28;1047;-35
2023/05/19 00:03:56;;;;;;;;;;;;;;;26.06;33.46;100429.28;5059246;28;1250;-35
2023/05/19 00:06:26;;;;;;;;;;;;;;;25.96;33.76;100420.63;5060514;28;1898;-37
2023/05/19 00:08:58;;;;;;;;;;;;;;;26.01;33.28;100432.53;5069992;28;1085;-35
2023/05/19 00:11:25;;;;;;;;;;;;;;;26.00;33.53;100430.84;5059188;28;1163;-34
2023/05/19 00:13:54;;;;;;;;;;;;;;;25.94;33.35;100431.59;5069302;28;1087;-35
2023/05/19 00:16:20;;;;;;;;;;;;;;;26.04;33.66;100436.72;5074589;28;1012;-35
2023/05/19 00:18:47;;;;;;;;;;;;;;;26.03;33.38;100432.34;5069099;28;1174;-35
2023/05/19 00:21:12;;;;;;;;;;;;;;;26.01;33.11;100434.38;5061722;28;1165;-35
2023/05/19 00:23:38;;;;;;;;;;;;;;;26.14;33.00;100442.66;5052092;28;1174;-32
2023/05/19 00:26:03;;;;;;;;;;;;;;;25.99;33.17;100439.94;5065294;28;1910;-30
2023/05/19 00:28:29;;;;;;;;;;;;;;;26.08;32.95;100437.16;5067933;28;1086;-30
2023/05/19 00:30:55;;;;;;;;;;;;;;;25.98;33.21;100443.66;5060178;28;1035;-32
2023/05/19 00:33:20;;;;;;;;;;;;;;;26.09;33.09;100438.88;5068773;28;1068;-32
2023/05/19 00:35:46;;;;;;;;;;;;;;;26.08;33.02;100440.72;5065069;28;1082;-36
2023/05/19 00:38:11;;;;;;;;;;;;;;;25.99;33.16;100444.53;5051236;28;1194;-32
2023/05/19 00:40:37;;;;;;;;;;;;;;;26.13;32.56;100449.09;5071740;28;1119;-29
2023/05/19 00:43:04;;;;;;;;;;;;;;;26.07;33.08;100441.75;5049634;28;1095;-36
2023/05/19 00:45:30;;;;;;;;;;;;;;;26.17;32.96;100446.88;5060300;28;1173;-36
2023/05/19 00:47:55;;;;;;;;;;;;;;;26.11;32.89;100443.03;5059644;28;1975;-36
2023/05/19 00:50:22;;;;;;;;;;;;;;;26.04;33.04;100440.22;5075270;28;1055;-31
2023/05/19 00:52:48;;;;;;;;;;;;;;;26.23;32.83;100442.59;5058468;28;1233;-35
2023/05/19 00:55:14;;;;;;;;;;;;;;;26.26;32.58;100444.91;5045570;28;1163;-36
2023/05/19 00:57:39;;;;;;;;;;;;;;;26.24;32.70;100457.75;5068280;28;1070;-36
2023/05/19 01:00:06;;;;;;;;;;;;;;;26.13;32.91;100454.47;5053805;28;1135;-32
2023/05/19 01:02:31;;;;;;;;;;;;;;;26.13;32.70;100450.94;5068714;28;1047;-36
2023/05/19 01:04:57;;;;;;;;;;;;;;;26.14;32.93;100452.63;5078258;28;1197;-35
2023/05/19 01:07:22;;;;;;;;;;;;;;;26.04;32.85;100450.19;5073328;28;1971;-35
2023/05/19 01:09:48;;;;;;;;;;;;;;;26.02;33.03;100458.47;5074354;28;1114;-34
2023/05/19 01:12:14;;;;;;;;;;;;;;;26.08;32.83;100456.03;5068700;28;1068;-33
2023/05/19 01:14:39;;;;;;;;;;;;;;;26.07;33.18;100462.47;5046959;28;1103;-35
2023/05/19 01:17:14;;;;;;;;;;;;;;;26.25;32.72;100464.81;5043131;28;1893;-36
2023/05/19 01:19:45;;;;;;;;;;;;;;;26.49;32.30;100462.91;5042651;28;1159;-35
2023/05/19 01:22:11;;;;;;;;;;;;;;;26.32;32.36;100468.47;5060181;28;1225;-33
2023/05/19 01:24:46;;;;;;;;;;;;;;;26.43;32.06;100472.56;5046237;28;1351;-36
2023/05/19 01:27:24;;;;;;;;;;;;;;;26.37;32.22;100470.63;5064049;28;1983;-34
2023/05/19 01:30:08;;;;;;;;;;;;;;;26.52;32.14;100466.09;5057390;28;1063;-35
2023/05/19 01:32:34;;;;;;;;;;;;;;;26.66;31.79;100474.34;5066726;28;1163;-35
2023/05/19 01:35:01;;;;;;;;;;;;;;;26.50;31.75;100473.53;5069140;28;1110;-36
2023/05/19 01:37:26;;;;;;;;;;;;;;;26.68;31.82;100466.91;5046647;28;1171;-33
2023/05/19 01:39:52;;;;;;;;;;;;;;;26.72;32.08;100473.63;5042875;28;1103;-35
2023/05/19 01:42:17;;;;;;;;;;;;;;;26.63;31.89;100472.88;5038252;28;1251;-36
2023/05/19 01:44:43;;;;;;;;;;;;;;;26.64;32.20;100474.53;5050788;28;1048;-34
2023/05/19 01:47:08;;;;;;;;;;;;;;;26.72;32.59;100464.66;5042296;28;1910;-35
2023/05/19 01:49:34;;;;;;;;;;;;;;;26.78;32.75;100469.31;5077558;28;994;-31
2023/05/19 01:51:59;;;;;;;;;;;;;;;26.79;32.07;100471.00;5059134;28;1145;-34
2023/05/19 01:54:25;;;;;;;;;;;;;;;26.77;32.36;100473.03;5047948;28;1214;-36
2023/05/19 01:57:08;;;;;;;;;;;;;;;26.90;32.26;100477.78;5074477;28;1174;-35
2023/05/19 01:59:52;;;;;;;;;;;;;;;26.81;32.42;100476.22;5059164;28;1151;-32
2023/05/19 02:02:41;;;;;;;;;;;;;;;26.72;32.67;100480.88;5057106;28;1020;-35
2023/05/19 02:05:08;;;;;;;;;;;;;;;26.74;32.77;100482.34;5027146;28;1279;-34
2023/05/19 02:07:43;;;;;;;;;;;;;;;26.82;32.78;100489.50;5068406;28;1913;-36
2023/05/19 02:10:18;;;;;;;;;;;;;;;26.93;32.69;100496.28;5038943;28;1518;-34
2023/05/19 02:12:43;;;;;;;;;;;;;;;27.02;32.85;100494.34;5040199;28;1035;-35
2023/05/19 02:15:09;;;;;;;;;;;;;;;26.92;32.78;100500.03;5051485;28;1202;-33
2023/05/19 02:17:35;;;;;;;;;;;;;;;26.81;33.08;100504.00;5053032;28;1296;-33
2023/05/19 02:20:01;;;;;;;;;;;;;;;26.84;33.59;100505.53;5054589;28;1124;-36
2023/05/19 02:22:27;;;;;;;;;;;;;;;26.84;33.07;100506.34;5058785;28;1089;-35
2023/05/19 02:24:55;;;;;;;;;;;;;;;26.93;33.02;100508.94;5058537;28;1142;-34
2023/05/19 02:27:20;;;;;;;;;;;;;;;26.90;33.07;100510.16;5063130;28;1960;-36
2023/05/19 02:29:46;;;;;;;;;;;;;;;26.88;33.65;100514.91;5076384;28;1078;-36
2023/05/19 02:32:11;;;;;;;;;;;;;;;26.93;33.99;100517.88;5068635;28;1218;-33
2023/05/19 02:34:38;;;;;;;;;;;;;;;26.94;33.12;100516.88;5058812;28;1110;-29
2023/05/19 02:37:04;;;;;;;;;;;;;;;26.73;34.00;100515.75;5061836;28;1142;-34
2023/05/19 02:39:33;;;;;;;;;;;;;;;26.61;33.67;100517.25;5046656;28;1253;-35
2023/05/19 02:42:00;;;;;;;;;;;;;;;26.67;33.86;100515.66;5062633;28;1059;-35
2023/05/19 02:44:25;;;;;;;;;;;;;;;26.67;34.36;100523.75;5075964;28;1185;-34
2023/05/19 02:46:51;;;;;;;;;;;;;;;26.70;34.03;100526.91;5044434;28;1973;-35
2023/05/19 02:49:16;;;;;;;;;;;;;;;26.71;33.89;100525.88;5050100;28;1457;-31
2023/05/19 02:51:42;;;;;;;;;;;;;;;26.86;34.50;100525.88;5055803;28;1119;-34
2023/05/19 02:54:08;;;;;;;;;;;;;;;26.89;33.71;100530.91;5046967;28;1166;-36
2023/05/19 02:56:33;;;;;;;;;;;;;;;27.14;33.05;100527.13;5075812;28;1097;-31
2023/05/19 02:58:59;;;;;;;;;;;;;;;27.22;32.70;100532.41;5058159;28;1198;-35
2023/05/19 03:01:25;;;;;;;;;;;;;;;26.66;33.54;100531.00;5074408;28;1197;-35
2023/05/19 03:03:50;;;;;;;;;;;;;;;26.31;34.39;100527.97;5055852;28;1218;-34
2023/05/19 03:06:16;;;;;;;;;;;;;;;26.22;34.38;100525.34;5071198;28;1926;-31
2023/05/19 03:08:42;;;;;;;;;;;;;;;26.28;34.30;100524.59;5049158;28;1354;-35
2023/05/19 03:11:08;;;;;;;;;;;;;;;26.73;33.18;100523.84;5068966;28;1126;-35
2023/05/19 03:13:33;;;;;;;;;;;;;;;26.51;33.68;100526.44;5038277;28;1444;-35
2023/05/19 03:15:59;;;;;;;;;;;;;;;26.83;33.26;100517.31;5057766;28;1119;-33
2023/05/19 03:18:25;;;;;;;;;;;;;;;26.50;33.19;100521.22;5058090;28;1083;-37
2023/05/19 03:20:52;;;;;;;;;;;;;;;26.86;32.54;100523.19;5075424;28;1141;-35
2023/05/19 03:23:18;;;;;;;;;;;;;;;26.60;33.23;100521.78;5075673;28;1078;-35
2023/05/19 03:25:44;;;;;;;;;;;;;;;26.39;33.81;100520.66;5075789;28;1981;-32
2023/05/19 03:28:09;;;;;;;;;;;;;;;26.46;33.63;100525.31;5057442;28;1130;-36
2023/05/19 03:30:35;;;;;;;;;;;;;;;26.48;34.02;100529.50;5075813;28;1246;-32
2023/05/19 03:33:07;;;;;;;;;;;;;;;26.11;34.69;100542.78;5055781;28;1655;-33
2023/05/19 03:35:32;;;;;;;;;;;;;;;26.04;34.60;100547.22;5072966;28;1110;-32
2023/05/19 03:37:58;;;;;;;;;;;;;;;25.78;35.57;100538.47;5047370;28;1107;-34
2023/05/19 03:40:24;;;;;;;;;;;;;;;25.92;35.05;100546.81;5057338;28;1434;-33
2023/05/19 03:42:56;;;;;;;;;;;;;;;25.83;33.67;100553.25;5057584;28;1727;-34
2023/05/19 03:45:21;;;;;;;;;;;;;;;24.91;34.24;100551.84;5060905;28;1200;-31
2023/05/19 03:47:49;;;;;;;;;;;;;;;24.60;34.43;100554.41;5047696;28;1914;-33
2023/05/19 03:50:33;;;;;;;;;;;;;;;24.96;33.69;100550.50;5074900;28;1226;-34
2023/05/19 03:53:09;;;;;;;;;;;;;;;24.83;34.41;100563.44;5044371;28;1141;-34
2023/05/19 03:55:39;;;;;;;;;;;;;;;25.14;33.64;100563.72;5049373;28;1194;-29
2023/05/19 03:58:05;;;;;;;;;;;;;;;24.92;35.03;100558.88;5051094;28;1167;-34
2023/05/19 04:00:30;;;;;;;;;;;;;;;25.55;33.70;100568.91;5045222;28;1309;-31
2023/05/19 04:02:56;;;;;;;;;;;;;;;25.72;33.80;100565.31;5075137;28;1150;-35
2023/05/19 04:05:21;;;;;;;;;;;;;;;25.23;33.91;100561.81;5074834;28;1129;-32
2023/05/19 04:07:47;;;;;;;;;;;;;;;25.34;33.23;100568.69;5075286;28;1909;-34
2023/05/19 04:10:12;;;;;;;;;;;;;;;25.19;33.05;100562.16;5059023;28;1012;-33
2023/05/19 04:12:38;;;;;;;;;;;;;;;25.13;33.06;100562.88;5067109;28;1167;-29
2023/05/19 04:15:04;;;;;;;;;;;;;;;25.17;32.78;100566.06;5061630;28;1114;-32
2023/05/19 04:17:30;;;;;;;;;;;;;;;25.06;33.06;100562.72;5057474;28;1487;-34
2023/05/19 04:19:55;;;;;;;;;;;;;;;25.09;33.38;100564.22;5061901;28;1167;-33
2023/05/19 04:22:21;;;;;;;;;;;;;;;25.11;33.63;100567.56;5065001;28;940;-34
2023/05/19 04:24:47;;;;;;;;;;;;;;;25.23;33.69;100572.56;5059105;28;1182;-34
2023/05/19 04:27:15;;;;;;;;;;;;;;;25.09;34.18;100572.28;5060744;28;1898;-35
2023/05/19 04:29:40;;;;;;;;;;;;;;;25.26;33.74;100574.91;5078467;28;1085;-34
2023/05/19 04:32:06;;;;;;;;;;;;;;;25.63;32.94;100586.06;5061080;28;1275;-32
2023/05/19 04:34:34;;;;;;;;;;;;;;;25.26;33.78;100586.53;5042027;28;1103;-33
2023/05/19 04:37:00;;;;;;;;;;;;;;;25.49;33.30;100591.13;5052395;28;1256;-30
2023/05/19 04:39:26;;;;;;;;;;;;;;;25.38;33.38;100588.84;5059924;28;1086;-33
2023/05/19 04:41:52;;;;;;;;;;;;;;;25.24;33.83;100602.00;5060149;28;1294;-33
2023/05/19 04:44:19;;;;;;;;;;;;;;;25.36;33.62;100589.00;5047096;28;1263;-35
2023/05/19 04:46:48;;;;;;;;;;;;;;;25.40;33.44;100589.50;5033308;28;1906;-34
2023/05/19 04:49:15;;;;;;;;;;;;;;;25.51;33.53;100594.50;5053711;28;1318;-33
2023/05/19 04:51:41;;;;;;;;;;;;;;;25.44;33.95;100597.06;5052771;28;1222;-35
2023/05/19 04:54:08;;;;;;;;;;;;;;;25.34;33.95;100593.72;5059936;28;2166;-34
2023/05/19 04:56:34;;;;;;;;;;;;;;;25.30;33.89;100590.56;5048867;28;1280;-29
2023/05/19 04:59:00;;;;;;;;;;;;;;;25.82;33.20;100597.41;5052117;28;1390;-31
2023/05/19 05:01:26;;;;;;;;;;;;;;;26.03;32.96;100594.06;5055368;28;1307;-34
2023/05/19 05:03:57;;;;;;;;;;;;;;;26.04;33.74;100596.56;5059846;28;1130;-34
2023/05/19 05:06:23;;;;;;;;;;;;;;;26.12;35.17;100592.16;5059755;28;1902;-34
2023/05/19 05:08:49;;;;;;;;;;;;;;;26.14;33.27;100600.91;5053143;28;1298;-34
2023/05/19 05:11:15;;;;;;;;;;;;;;;25.86;33.34;100596.88;5059537;28;1601;-34
2023/05/19 05:13:41;;;;;;;;;;;;;;;25.86;33.59;100588.78;5060142;28;1087;-34
2023/05/19 05:16:07;;;;;;;;;;;;;;;25.67;33.58;100590.91;5057451;28;1310;-33
2023/05/19 05:18:33;;;;;;;;;;;;;;;25.68;33.90;100591.75;5048916;28;1135;-31
2023/05/19 05:20:59;;;;;;;;;;;;;;;25.72;33.69;100587.69;5064760;28;1126;-30
2023/05/19 05:23:25;;;;;;;;;;;;;;;25.86;33.88;100590.66;5050834;28;1177;-30
2023/05/19 05:25:51;;;;;;;;;;;;;;;25.79;33.90;100588.66;5052589;28;1905;-28
2023/05/19 05:28:17;;;;;;;;;;;;;;;25.79;33.76;100594.03;5039828;28;1258;-35
2023/05/19 05:30:43;;;;;;;;;;;;;;;25.85;34.01;100594.34;5055495;28;1231;-32
2023/05/19 05:33:10;;;;;;;;;;;;;;;25.78;34.07;100597.75;5058813;28;1321;-31
2023/05/19 05:35:37;;;;;;;;;;;;;;;25.79;34.22;100599.44;5046065;28;1208;-35
2023/05/19 05:38:05;;;;;;;;;;;;;;;25.92;33.89;100595.31;5049605;28;1297;-35
2023/05/19 05:40:31;;;;;;;;;;;;;;;25.84;34.10;100603.47;5055588;28;1287;-35
2023/05/19 05:42:57;;;;;;;;;;;;;;;25.93;34.01;100599.69;5049728;28;1296;-35
2023/05/19 05:45:25;;;;;;;;;;;;;;;25.80;34.36;100603.81;5036618;28;1185;-35
2023/05/19 05:47:52;;;;;;;;;;;;;;;25.82;34.37;100605.47;5035744;28;1971;-35
2023/05/19 05:50:18;;;;;;;;;;;;;;;25.83;34.29;100605.31;5035550;28;1155;-35
2023/05/19 05:52:47;;;;;;;;;;;;;;;25.97;34.03;100600.16;5036052;28;1257;-35
2023/05/19 05:55:16;;;;;;;;;;;;;;;25.97;34.13;100606.41;5022468;28;1130;-34
2023/05/19 05:57:42;;;;;;;;;;;;;;;25.90;34.54;100605.44;5034812;28;1406;-30
2023/05/19 06:00:17;;;;;;;;;;;;;;;25.86;34.08;100610.34;5036018;28;1139;-35
2023/05/19 06:02:49;;;;;;;;;;;;;;;26.26;34.36;100604.84;5022651;28;1364;-35
2023/05/19 06:05:16;;;;;;;;;;;;;;;26.01;33.88;100612.25;5021904;28;1190;-32
2023/05/19 06:07:42;;;;;;;;;;;;;;;26.40;33.57;100613.19;5035087;28;1910;-34
2023/05/19 06:10:10;;;;;;;;;;;;;;;26.47;33.75;100616.00;5025781;28;1135;-30
2023/05/19 06:12:39;;;;;;;;;;;;;;;25.89;34.30;100614.53;5030368;28;1088;-35
2023/05/19 06:15:05;;;;;;;;;;;;;;;25.92;34.44;100612.31;5025206;28;1397;-33
2023/05/19 06:17:51;;;;;;;;;;;;;;;26.22;33.92;100611.63;5030199;28;1118;-35
2023/05/19 06:20:17;;;;;;;;;;;;;;;26.24;33.71;100614.13;5028063;28;1157;-35
2023/05/19 06:22:43;;;;;;;;;;;;;;;26.22;33.55;100617.00;5027795;28;1259;-35
2023/05/19 06:25:09;;;;;;;;;;;;;;;26.15;33.86;100621.44;5018797;28;1283;-35
2023/05/19 06:27:35;;;;;;;;;;;;;;;26.29;33.57;100625.22;5029107;28;1980;-35
2023/05/19 06:30:01;;;;;;;;;;;;;;;26.33;33.66;100614.91;5028171;28;1203;-33
2023/05/19 06:32:30;;;;;;;;;;;;;;;26.33;33.52;100617.63;5034817;28;1210;-31
2023/05/19 06:34:57;;;;;;;;;;;;;;;26.41;33.46;100615.69;5034763;28;1245;-36
2023/05/19 06:37:23;;;;;;;;;;;;;;;26.28;33.54;100615.44;5015607;28;1180;-33
2023/05/19 06:39:51;;;;;;;;;;;;;;;26.17;34.27;100625.63;5029496;28;989;-35
2023/05/19 06:42:20;;;;;;;;;;;;;;;26.16;34.29;100626.66;5023301;28;1361;-31
2023/05/19 06:45:06;;;;;;;;;;;;;;;26.17;34.14;100624.81;5012008;28;1236;-32
2023/05/19 06:47:32;;;;;;;;;;;;;;;26.20;34.16;100623.59;5054445;28;1910;-35
2023/05/19 06:49:58;;;;;;;;;;;;;;;26.24;34.10;100633.00;5049820;28;1125;-33
2023/05/19 06:52:27;;;;;;;;;;;;;;;26.12;33.90;100632.59;5034769;28;1205;-31
2023/05/19 06:54:53;;;;;;;;;;;;;;;26.31;33.36;100643.91;5052908;28;1378;-34
2023/05/19 06:57:19;;;;;;;;;;;;;;;26.20;34.02;100643.31;5042949;28;1158;-32
2023/05/19 06:59:45;;;;;;;;;;;;;;;26.25;32.92;100648.16;5022718;28;1441;-34
2023/05/19 07:02:11;;;;;;;;;;;;;;;26.08;33.91;100644.72;5054311;28;1332;-29
2023/05/19 07:04:38;;;;;;;;;;;;;;;26.01;34.08;100644.59;5041114;28;1395;-35
2023/05/19 07:07:05;;;;;;;;;;;;;;;25.94;34.06;100649.88;5054839;28;1909;-28
2023/05/19 07:09:31;;;;;;;;;;;;;;;26.63;32.58;100652.78;5040634;28;1149;-33
2023/05/19 07:11:57;;;;;;;;;;;;;;;26.57;33.17;100650.81;5054600;28;1114;-20
2023/05/19 07:14:22;;;;;;;;;;;;;;;26.59;32.68;100655.00;5054443;28;1301;-36
2023/05/19 07:16:48;;;;;;;;;;;;;;;26.59;33.02;100649.59;5030073;28;1129;-37
2023/05/19 07:19:13;;;;;;;;;;;;;;;26.62;33.31;100654.66;5036123;28;1065;-32
2023/05/19 07:21:41;;;;;;;;;;;;;;;26.37;33.78;100648.63;5034496;28;1387;-34
2023/05/19 07:24:06;;;;;;;;;;;;;;;26.50;33.39;100650.69;5049087;28;1123;-36
2023/05/19 07:26:32;;;;;;;;;;;;;;;26.81;32.51;100649.75;5054281;28;1979;-36
2023/05/19 07:28:57;;;;;;;;;;;;;;;26.92;33.31;100655.72;5042426;28;1150;-39
2023/05/19 07:31:23;;;;;;;;;;;;;;;26.76;32.81;100653.00;5047668;28;1074;-36
2023/05/19 07:33:48;;;;;;;;;;;;;;;26.58;33.20;100653.31;5049739;28;1126;-34
2023/05/19 07:36:14;;;;;;;;;;;;;;;26.46;33.12;100658.31;5048314;28;1203;-37
2023/05/19 07:38:40;;;;;;;;;;;;;;;26.55;33.44;100659.09;5048716;28;1023;-33
2023/05/19 07:41:05;;;;;;;;;;;;;;;26.61;33.21;100654.84;5035172;28;1103;-37
2023/05/19 07:43:31;;;;;;;;;;;;;;;26.69;32.49;100651.22;5049343;28;1195;-31
2023/05/19 07:45:56;;;;;;;;;;;;;;;26.63;32.99;100659.03;5061536;28;2008;-33
2023/05/19 07:48:23;;;;;;;;;;;;;;;26.55;33.27;100659.09;5075359;28;1110;-32
2023/05/19 07:50:49;;;;;;;;;;;;;;;26.53;33.44;100653.03;5067617;28;1214;-37
2023/05/19 07:53:15;;;;;;;;;;;;;;;26.52;33.31;100660.31;5070349;28;1008;-31
2023/05/19 07:55:40;;;;;;;;;;;;;;;26.58;33.42;100650.63;5076048;28;1058;-35
2023/05/19 07:58:06;;;;;;;;;;;;;;;26.53;33.20;100655.72;5065663;28;1103;-34
2023/05/19 08:00:31;;;;;;;;;;;;;;;26.64;32.85;100654.47;5079648;28;1063;-41
2023/05/19 08:02:57;;;;;;;;;;;;;;;26.57;32.67;100659.75;5078381;28;1071;-35
2023/05/19 08:05:24;;;;;;;;;;;;;;;26.71;33.22;100655.41;5079654;28;1051;-31
2023/05/19 08:07:49;;;;;;;;;;;;;;;26.85;32.32;100656.47;5079044;28;1910;-35
2023/05/19 08:10:15;;;;;;;;;;;;;;;26.55;33.74;100666.34;5071264;28;1285;-37
2023/05/19 08:12:40;;;;;;;;;;;;;;;26.38;32.76;100661.06;5059998;28;1159;-36
2023/05/19 08:15:06;;;;;;;;;;;;;;;26.27;33.17;100667.69;5079167;28;1034;-33
2023/05/19 08:17:32;;;;;;;;;;;;;;;26.55;33.12;100667.19;5078654;28;1074;-34
2023/05/19 08:19:59;;;;;;;;;;;;;;;26.67;32.81;100664.91;5078734;28;1055;-36
2023/05/19 08:22:24;;;;;;;;;;;;;;;26.40;33.38;100670.69;5064787;28;1067;-38
2023/05/19 08:24:50;;;;;;;;;;;;;;;26.56;32.81;100676.13;5078366;28;1023;-33
2023/05/19 08:27:16;;;;;;;;;;;;;;;26.48;33.29;100672.47;5065175;28;1906;-37
2023/05/19 08:29:41;;;;;;;;;;;;;;;26.55;33.31;100683.38;5079197;28;1154;-36
2023/05/19 08:32:07;;;;;;;;;;;;;;;26.54;33.42;100689.78;5057920;28;1169;-37
2023/05/19 08:34:32;;;;;;;;;;;;;;;26.33;33.74;100699.38;5070022;28;1107;-37
2023/05/19 08:36:58;;;;;;;;;;;;;;;26.20;32.77;100681.06;5064463;28;1007;-34
2023/05/19 08:39:25;;;;;;;;;;;;;;;26.12;32.62;100675.72;5065661;28;1106;-35
2023/05/19 08:41:54;;;;;;;;;;;;;;;26.18;32.83;100675.00;5077763;28;1150;-37
2023/05/19 08:44:19;;;;;;;;;;;;;;;26.25;32.43;100673.28;5060294;28;1109;-34
2023/05/19 08:46:46;;;;;;;;;;;;;;;26.33;33.00;100680.50;5075685;28;1898;-35
2023/05/19 08:49:12;;;;;;;;;;;;;;;26.34;32.71;100668.69;5064810;28;1045;-31
2023/05/19 08:51:40;;;;;;;;;;;;;;;26.37;32.68;100671.03;5078591;28;1186;-38
2023/05/19 08:54:09;;;;;;;;;;;;;;;26.26;33.12;100669.56;5077314;28;1086;-32
2023/05/19 08:56:35;;;;;;;;;;;;;;;26.28;33.39;100675.59;5066261;28;1146;-32
2023/05/19 08:59:00;;;;;;;;;;;;;;;26.34;32.99;100671.38;5069508;28;1203;-35
2023/05/19 09:01:27;;;;;;;;;;;;;;;26.31;33.34;100663.63;5058474;28;1143;-33
2023/05/19 09:03:53;;;;;;;;;;;;;;;26.25;33.51;100654.41;5048994;28;1139;-34
2023/05/19 09:06:18;;;;;;;;;;;;;;;26.33;33.63;100663.47;5077952;28;1898;-35
2023/05/19 09:08:44;;;;;;;;;;;;;;;26.35;33.29;100648.78;5077103;28;1034;-38
2023/05/19 09:11:09;;;;;;;;;;;;;;;26.53;32.71;100650.34;5068799;28;1131;-37
2023/05/19 09:13:35;;;;;;;;;;;;;;;26.25;32.79;100657.09;5077691;28;1137;-38
2023/05/19 09:16:01;;;;;;;;;;;;;;;26.23;33.38;100663.66;5062947;28;1150;-35
2023/05/19 09:18:27;;;;;;;;;;;;;;;26.21;33.45;100654.94;5066241;28;1204;-37
2023/05/19 09:20:59;;;;;;;;;;;;;;;26.23;33.44;100659.13;5046659;28;1091;-34
2023/05/19 09:23:34;;;;;;;;;;;;;;;26.31;33.27;100662.78;5076902;28;1059;-39
2023/05/19 09:26:03;;;;;;;;;;;;;;;26.23;33.35;100661.81;5064071;28;1898;-33
2023/05/19 09:28:30;;;;;;;;;;;;;;;26.25;33.30;100658.94;5077713;28;1538;-36
2023/05/19 09:30:59;;;;;;;;;;;;;;;26.67;32.74;100656.81;5059673;28;1158;-39
2023/05/19 09:33:25;;;;;;;;;;;;;;;26.74;32.78;100663.13;5066574;28;1111;-33
2023/05/19 09:35:52;;;;;;;;;;;;;;;26.78;32.47;100659.06;5074472;28;1068;-37
2023/05/19 09:38:18;;;;;;;;;;;;;;;26.60;32.98;100662.09;5069235;28;1091;-35
2023/05/19 09:40:43;;;;;;;;;;;;;;;26.55;33.38;100663.63;5077568;28;1205;-35
2023/05/19 09:43:09;;;;;;;;;;;;;;;26.40;33.14;100648.25;5064228;28;1272;-38
2023/05/19 09:45:35;;;;;;;;;;;;;;;26.40;33.50;100659.88;5077042;28;1217;-34
2023/05/19 09:48:04;;;;;;;;;;;;;;;26.45;33.21;100671.97;5073153;28;1914;-33
2023/05/19 09:50:29;;;;;;;;;;;;;;;26.38;33.40;100669.16;5068377;28;1170;-37
2023/05/19 09:52:55;;;;;;;;;;;;;;;26.35;33.62;100678.47;5045389;28;1102;-35
2023/05/19 09:55:22;;;;;;;;;;;;;;;26.23;33.68;100680.69;5059014;28;1103;-33
2023/05/19 09:57:49;;;;;;;;;;;;;;;26.21;33.51;100674.63;5058955;28;1126;-33
2023/05/19 10:00:16;;;;;;;;;;;;;;;26.32;33.66;100686.88;5051764;28;1257;-33
2023/05/19 10:02:42;;;;;;;;;;;;;;;26.49;34.16;100682.22;5047301;28;1127;-34
2023/05/19 10:05:18;;;;;;;;;;;;;;;26.81;32.96;100675.91;5062520;28;1109;-36
2023/05/19 10:07:53;;;;;;;;;;;;;;;27.08;32.56;100682.59;5063322;28;1977;-34
2023/05/19 10:10:19;;;;;;;;;;;;;;;26.59;33.53;100679.28;5076435;28;1186;-31
2023/05/19 10:12:45;;;;;;;;;;;;;;;26.55;33.15;100690.59;5071943;28;937;-35
2023/05/19 10:15:11;;;;;;;;;;;;;;;26.82;33.10;100686.53;5058915;28;1141;-36
2023/05/19 10:17:37;;;;;;;;;;;;;;;26.75;32.70;100681.00;5057007;28;1070;-35
2023/05/19 10:20:05;;;;;;;;;;;;;;;26.65;33.32;100677.72;5069875;28;1175;-35
2023/05/19 10:22:31;;;;;;;;;;;;;;;26.59;33.12;100679.28;5067530;28;1174;-34
2023/05/19 10:24:56;;;;;;;;;;;;;;;26.55;33.07;100680.66;5063002;28;1139;-36
2023/05/19 10:27:22;;;;;;;;;;;;;;;26.82;33.40;100674.88;5065289;28;1902;-36
2023/05/19 10:29:48;;;;;;;;;;;;;;;26.98;32.56;100677.41;5060502;28;1045;-37
2023/05/19 10:32:14;;;;;;;;;;;;;;;26.83;32.89;100682.78;5058101;28;1182;-35
2023/05/19 10:34:49;;;;;;;;;;;;;;;26.68;33.21;100673.81;5075234;28;1366;-32
2023/05/19 10:37:17;;;;;;;;;;;;;;;26.73;33.15;100685.75;5063895;28;1047;-34
2023/05/19 10:39:43;;;;;;;;;;;;;;;26.70;33.20;100680.72;5076341;28;1213;-37
2023/05/19 10:42:18;;;;;;;;;;;;;;;26.64;32.84;100679.56;5058824;28;1086;-33
2023/05/19 10:45:07;;;;;;;;;;;;;;;26.62;33.12;100678.94;5055674;28;1222;-39
2023/05/19 10:47:33;;;;;;;;;;;;;;;26.63;32.92;100680.59;5047546;28;2006;-36
2023/05/19 10:50:00;;;;;;;;;;;;;;;26.71;32.76;100684.25;5070023;28;1330;-34
2023/05/19 10:52:28;;;;;;;;;;;;;;;26.67;33.41;100674.84;5056572;28;1052;-37
2023/05/19 10:54:54;;;;;;;;;;;;;;;26.60;33.08;100672.88;5056204;28;1328;-37
2023/05/19 10:57:19;;;;;;;;;;;;;;;26.64;33.15;100659.88;5038529;28;1198;-38
2023/05/19 10:59:45;;;;;;;;;;;;;;;26.63;33.35;100672.50;5052231;28;1309;-38
2023/05/19 11:02:31;;;;;;;;;;;;;;;26.61;33.39;100679.13;5051003;28;1103;-37
2023/05/19 11:04:57;;;;;;;;;;;;;;;26.61;33.30;100679.94;5048740;28;1389;-36
2023/05/19 11:07:23;;;;;;;;;;;;;;;26.54;33.18;100684.41;5038171;28;1910;-36
2023/05/19 11:09:52;;;;;;;;;;;;;;;26.47;33.29;100672.63;5056074;28;1413;-32
2023/05/19 11:12:21;;;;;;;;;;;;;;;26.48;33.36;100680.56;5056784;28;1238;-33
2023/05/19 11:14:46;;;;;;;;;;;;;;;26.48;33.51;100682.41;5074683;28;1199;-37
2023/05/19 11:17:13;;;;;;;;;;;;;;;26.97;33.02;100672.22;5047239;28;1174;-33
2023/05/19 11:19:40;;;;;;;;;;;;;;;26.87;32.78;100681.41;5074040;28;1122;-36
2023/05/19 11:22:09;;;;;;;;;;;;;;;26.76;33.17;100679.13;5075519;28;1098;-34
2023/05/19 11:24:35;;;;;;;;;;;;;;;26.75;33.07;100672.91;5062710;28;1131;-35
2023/05/19 11:27:20;;;;;;;;;;;;;;;26.68;33.29;100677.34;5075855;28;1914;-34
2023/05/19 11:29:47;;;;;;;;;;;;;;;26.58;33.17;100669.50;5056097;28;1044;-38
2023/05/19 11:32:12;;;;;;;;;;;;;;;26.92;32.63;100659.28;5072742;28;1187;-37
2023/05/19 11:34:38;;;;;;;;;;;;;;;27.04;32.18;100665.09;5059767;28;1537;-36
2023/05/19 11:37:03;;;;;;;;;;;;;;;27.07;32.29;100663.88;5056638;28;1135;-37
2023/05/19 11:39:29;;;;;;;;;;;;;;;27.10;32.41;100664.34;5053366;28;1412;-33
2023/05/19 11:41:55;;;;;;;;;;;;;;;26.99;32.49;100656.66;5055546;28;1055;-37
2023/05/19 11:44:20;;;;;;;;;;;;;;;26.81;32.85;100663.25;5061276;28;1102;-40
2023/05/19 11:46:46;;;;;;;;;;;;;;;26.80;32.64;100668.81;5060024;28;1905;-33
2023/05/19 11:49:12;;;;;;;;;;;;;;;26.71;33.25;100654.59;5041964;28;1119;-37
2023/05/19 11:51:37;;;;;;;;;;;;;;;26.53;33.68;100651.19;5072858;28;1124;-35
2023/05/19 11:54:03;;;;;;;;;;;;;;;26.59;33.44;100654.16;5072923;28;1055;-34
2023/05/19 11:56:36;;;;;;;;;;;;;;;26.60;33.52;100658.53;5070454;28;1083;-31
2023/05/19 11:59:01;;;;;;;;;;;;;;;26.74;33.31;100652.34;5049651;28;1471;-37
2023/05/19 12:01:27;;;;;;;;;;;;;;;26.67;33.34;100651.41;5077878;28;1094;-39
2023/05/19 12:03:52;;;;;;;;;;;;;;;26.60;33.79;100651.28;5067582;28;1071;-37
2023/05/19 12:06:18;;;;;;;;;;;;;;;26.51;33.71;100658.59;5065835;28;1902;-38
2023/05/19 12:08:44;;;;;;;;;;;;;;;27.17;32.96;100661.75;5071582;28;1151;-37
2023/05/19 12:11:09;;;;;;;;;;;;;;;27.09;32.58;100657.25;5063226;28;1084;-35
2023/05/19 12:13:35;;;;;;;;;;;;;;;26.95;33.20;100648.09;5060499;28;1564;-34
2023/05/19 12:16:02;;;;;;;;;;;;;;;26.86;33.31;100655.44;5079423;28;1057;-35
2023/05/19 12:18:29;;;;;;;;;;;;;;;26.76;33.58;100657.53;5063585;28;1081;-34
2023/05/19 12:20:55;;;;;;;;;;;;;;;26.80;33.36;100658.03;5067604;28;1125;-39
2023/05/19 12:23:20;;;;;;;;;;;;;;;26.80;33.29;100653.47;5061314;28;1304;-36
2023/05/19 12:25:46;;;;;;;;;;;;;;;26.77;33.46;100654.69;5078550;28;1198;-35
2023/05/19 12:28:11;;;;;;;;;;;;;;;26.80;33.36;100639.13;5078815;28;1988;-35
2023/05/19 12:30:37;;;;;;;;;;;;;;;26.87;33.38;100649.03;5075019;28;1058;-35
2023/05/19 12:33:03;;;;;;;;;;;;;;;26.78;33.70;100644.72;5059365;28;1111;-34
2023/05/19 12:35:28;;;;;;;;;;;;;;;26.80;33.47;100636.44;5058909;28;1211;-36
2023/05/19 12:37:54;;;;;;;;;;;;;;;26.84;33.45;100645.84;5064081;28;1282;-37
2023/05/19 12:40:20;;;;;;;;;;;;;;;26.85;33.48;100647.53;5066723;28;1535;-33
2023/05/19 12:42:46;;;;;;;;;;;;;;;26.77;33.69;100648.44;5039772;28;1202;-35
2023/05/19 12:45:12;;;;;;;;;;;;;;;26.93;33.41;100643.88;5058717;28;1286;-33
2023/05/19 12:47:38;;;;;;;;;;;;;;;26.86;33.68;100646.53;5075425;28;1964;-37